Time;durP1;ratioP1;P1;durP2;ratioP2;P2;SDS_P1;SDS_P2;PMS_P1;PMS_P2;Temp;Humidity;BMP_temperature;BMP_pressure;BME280_temperature;BME280_humidity;BME280_pressure;Samples;Min_cycle;Max_cycle;Signal;HPM_P1;HPM_P2
2021/11/22 00:01:06;;;;;;;2.13;1.15;;;5.30;99.90;;;;;;5099902;28;20032;-72
2021/11/22 00:03:33;;;;;;;2.10;0.98;;;5.30;99.90;;;;;;5099811;28;20035;-73
2021/11/22 00:05:58;;;;;;;2.63;1.20;;;5.30;99.90;;;;;;5096850;28;20036;-74
2021/11/22 00:08:24;;;;;;;3.15;1.00;;;5.30;99.90;;;;;;5097546;28;20077;-73
2021/11/22 00:10:50;;;;;;;5.15;1.00;;;5.30;99.90;;;;;;5062479;28;20035;-74
2021/11/22 00:13:16;;;;;;;3.70;1.10;;;5.30;99.90;;;;;;5098137;28;20031;-73
2021/11/22 00:15:42;;;;;;;3.38;1.42;;;5.30;99.90;;;;;;5097247;28;20392;-73
2021/11/22 00:18:08;;;;;;;3.97;1.30;;;5.30;99.90;;;;;;5099961;28;20024;-73
2021/11/22 00:20:34;;;;;;;3.83;1.00;;;5.20;99.90;;;;;;5084272;28;20055;-74
2021/11/22 00:23:00;;;;;;;1.92;0.90;;;5.20;99.90;;;;;;5096885;28;20474;-74
2021/11/22 00:25:25;;;;;;;3.20;1.13;;;5.20;99.90;;;;;;5080308;28;20032;-74
2021/11/22 00:27:51;;;;;;;2.53;0.85;;;5.30;99.90;;;;;;5100054;28;20081;-74
2021/11/22 00:30:17;;;;;;;1.77;1.00;;;5.20;99.90;;;;;;5097526;28;20028;-73
2021/11/22 00:32:45;;;;;;;2.65;0.80;;;5.20;99.90;;;;;;5081404;28;20031;-74
2021/11/22 00:35:13;;;;;;;2.88;1.10;;;5.20;99.90;;;;;;5102136;28;20031;-73
2021/11/22 00:37:41;;;;;;;2.60;0.82;;;5.20;99.90;;;;;;5098632;28;20501;-74
2021/11/22 00:40:10;;;;;;;1.95;0.80;;;5.20;99.90;;;;;;5098180;28;20028;-72
2021/11/22 00:42:38;;;;;;;1.42;0.63;;;5.20;99.90;;;;;;5097212;28;20437;-74
2021/11/22 00:45:05;;;;;;;4.00;0.98;;;5.20;99.90;;;;;;5080459;28;20030;-74
2021/11/22 00:47:31;;;;;;;1.65;0.60;;;5.30;99.90;;;;;;5070453;28;20027;-74
2021/11/22 00:49:57;;;;;;;3.35;1.00;;;5.20;99.90;;;;;;5100473;28;20457;-74
2021/11/22 00:52:22;;;;;;;4.93;0.95;;;5.20;99.90;;;;;;5094839;28;20066;-74
2021/11/22 00:54:48;;;;;;;2.65;1.00;;;5.20;99.90;;;;;;5036311;28;1265804;-74
2021/11/22 00:57:14;;;;;;;5.15;0.90;;;5.10;99.90;;;;;;5080571;28;20037;-75
2021/11/22 00:59:40;;;;;;;5.63;1.05;;;5.10;99.90;;;;;;5082767;28;20478;-74
2021/11/22 01:02:06;;;;;;;2.78;0.93;;;5.10;99.90;;;;;;5098771;28;20094;-74
2021/11/22 01:04:33;;;;;;;3.08;0.85;;;5.10;99.90;;;;;;5098690;28;20027;-73
2021/11/22 01:06:59;;;;;;;3.90;0.98;;;5.10;99.90;;;;;;5099884;28;20480;-75
2021/11/22 01:09:24;;;;;;;2.28;0.70;;;5.00;99.90;;;;;;5099498;28;20063;-73
2021/11/22 01:11:50;;;;;;;2.33;0.80;;;5.00;99.90;;;;;;5096620;28;20063;-74
2021/11/22 01:14:16;;;;;;;1.45;0.90;;;4.90;99.90;;;;;;5099614;28;20032;-74
2021/11/22 01:16:42;;;;;;;1.90;0.73;;;4.90;99.90;;;;;;5081044;28;20057;-73
2021/11/22 01:19:08;;;;;;;4.15;1.02;;;4.90;99.90;;;;;;5097254;28;20123;-74
2021/11/22 01:21:35;;;;;;;1.55;0.80;;;4.90;99.90;;;;;;5096607;28;20497;-73
2021/11/22 01:24:01;;;;;;;3.08;1.08;;;4.90;99.90;;;;;;5097091;28;20091;-75
2021/11/22 01:26:26;;;;;;;3.08;1.33;;;4.80;99.90;;;;;;5097781;28;20059;-74
2021/11/22 01:28:53;;;;;;;2.55;1.05;;;4.90;99.90;;;;;;5086136;28;20038;-74
2021/11/22 01:31:18;;;;;;;1.75;0.80;;;4.80;99.90;;;;;;5098484;28;20102;-74
2021/11/22 01:33:45;;;;;;;2.63;0.80;;;4.80;99.90;;;;;;5097722;28;20146;-73
2021/11/22 01:36:11;;;;;;;3.97;0.90;;;4.80;99.90;;;;;;5097581;28;20028;-74
2021/11/22 01:38:36;;;;;;;3.45;0.80;;;4.80;99.90;;;;;;5097069;28;20032;-74
2021/11/22 01:41:03;;;;;;;2.25;0.82;;;4.80;99.90;;;;;;5097531;28;20039;-74
2021/11/22 01:43:32;;;;;;;1.48;0.93;;;4.80;99.90;;;;;;5097675;28;20020;-74
2021/11/22 01:45:58;;;;;;;1.83;0.80;;;4.70;99.90;;;;;;5100719;28;20026;-75
2021/11/22 01:48:25;;;;;;;4.55;0.90;;;4.70;99.90;;;;;;5099193;28;20032;-74
2021/11/22 01:50:53;;;;;;;3.28;0.80;;;4.70;99.90;;;;;;5098590;28;20725;-74
2021/11/22 01:53:19;;;;;;;2.30;0.95;;;4.70;99.90;;;;;;5080525;28;20397;-74
2021/11/22 01:55:46;;;;;;;2.08;0.60;;;4.60;99.90;;;;;;5104735;28;20493;-72
2021/11/22 01:58:12;;;;;;;2.88;0.82;;;4.60;99.90;;;;;;5083294;28;20455;-75
2021/11/22 02:00:42;;;;;;;2.17;0.70;;;4.60;99.90;;;;;;5102601;28;20034;-73
2021/11/22 02:03:09;;;;;;;1.00;0.57;;;4.60;99.90;;;;;;5103134;28;20389;-74
2021/11/22 02:05:35;;;;;;;3.85;0.77;;;4.60;99.90;;;;;;5102783;28;20447;-74
2021/11/22 02:08:05;;;;;;;1.17;0.75;;;4.60;99.90;;;;;;5107596;28;20028;-73
2021/11/22 02:10:31;;;;;;;0.90;0.50;;;4.60;99.90;;;;;;5103361;28;20020;-74
2021/11/22 02:12:58;;;;;;;6.00;1.50;;;4.60;99.90;;;;;;5102418;28;20015;-74
2021/11/22 02:15:25;;;;;;;3.65;0.88;;;4.60;99.90;;;;;;5081836;28;20028;-74
2021/11/22 02:17:52;;;;;;;3.03;0.73;;;4.60;99.90;;;;;;5084727;28;20028;-74
2021/11/22 02:20:23;;;;;;;3.83;0.75;;;4.60;99.90;;;;;;5103184;28;20027;-73
2021/11/22 02:22:50;;;;;;;1.65;0.70;;;4.50;99.90;;;;;;5102303;28;20028;-74
2021/11/22 02:25:18;;;;;;;1.65;0.82;;;4.60;99.90;;;;;;5102152;28;20470;-74
2021/11/22 02:27:46;;;;;;;2.35;0.90;;;4.60;99.90;;;;;;5102600;28;20556;-74
2021/11/22 02:30:13;;;;;;;1.60;0.70;;;4.60;99.90;;;;;;5099963;28;20024;-74
2021/11/22 02:32:40;;;;;;;3.03;0.80;;;4.50;99.90;;;;;;5101440;28;20058;-74
2021/11/22 02:35:09;;;;;;;2.20;0.90;;;4.50;99.90;;;;;;5102457;28;20460;-73
2021/11/22 02:37:35;;;;;;;4.35;0.70;;;4.50;99.90;;;;;;5085932;28;20043;-74
2021/11/22 02:40:03;;;;;;;3.55;0.80;;;4.40;99.90;;;;;;5102449;28;20019;-74
2021/11/22 02:42:31;;;;;;;1.35;0.77;;;4.40;99.90;;;;;;5105115;27;20063;-74
2021/11/22 02:44:58;;;;;;;1.45;0.65;;;4.40;99.90;;;;;;5100418;28;20024;-74
2021/11/22 02:47:25;;;;;;;2.30;0.85;;;4.40;99.90;;;;;;5102436;28;20055;-74
2021/11/22 02:49:51;;;;;;;2.35;0.80;;;4.30;99.90;;;;;;5100473;28;20081;-73
2021/11/22 02:52:17;;;;;;;3.40;0.77;;;4.40;99.90;;;;;;5099429;28;20163;-73
2021/11/22 02:54:44;;;;;;;1.73;0.73;;;4.30;99.90;;;;;;5101285;28;20108;-75
2021/11/22 02:57:11;;;;;;;2.53;0.90;;;4.40;99.90;;;;;;5082294;28;20028;-75
2021/11/22 02:59:39;;;;;;;3.45;0.70;;;4.40;99.90;;;;;;5082885;28;20369;-73
2021/11/22 03:02:11;;;;;;;1.55;0.75;;;4.30;99.90;;;;;;5099055;28;20020;-73
2021/11/22 03:04:42;;;;;;;1.38;0.95;;;4.30;99.90;;;;;;5100227;28;20069;-74
2021/11/22 03:07:08;;;;;;;2.10;1.02;;;4.30;99.90;;;;;;5100136;28;20030;-74
2021/11/22 03:09:35;;;;;;;2.72;0.75;;;4.30;99.90;;;;;;5101313;28;20035;-74
2021/11/22 03:12:03;;;;;;;3.10;0.82;;;4.30;99.90;;;;;;5100405;28;20044;-74
2021/11/22 03:14:30;;;;;;;2.33;0.98;;;4.20;99.90;;;;;;5101138;28;20039;-74
2021/11/22 03:16:56;;;;;;;3.28;0.80;;;4.20;99.90;;;;;;5101055;28;20031;-74
2021/11/22 03:19:22;;;;;;;3.33;0.98;;;4.20;99.90;;;;;;5101416;28;20032;-74
2021/11/22 03:21:49;;;;;;;2.42;0.93;;;4.20;99.90;;;;;;5099614;28;20149;-74
2021/11/22 03:24:15;;;;;;;4.22;0.95;;;4.20;99.90;;;;;;5100530;28;20485;-74
2021/11/22 03:26:41;;;;;;;3.80;1.27;;;4.10;99.90;;;;;;5100655;28;20038;-74
2021/11/22 03:29:07;;;;;;;1.67;0.80;;;4.10;99.90;;;;;;5099989;28;20027;-74
2021/11/22 03:31:33;;;;;;;2.70;0.80;;;4.10;99.90;;;;;;5101484;28;20427;-74
2021/11/22 03:34:04;;;;;;;3.78;1.00;;;4.10;99.90;;;;;;5079942;28;20028;-74
2021/11/22 03:36:32;;;;;;;3.50;1.20;;;4.10;99.90;;;;;;5101012;28;20443;-74
2021/11/22 03:38:59;;;;;;;3.40;0.90;;;4.10;99.90;;;;;;5101339;28;20470;-74
2021/11/22 03:41:26;;;;;;;1.70;1.05;;;4.10;99.90;;;;;;5099208;28;20032;-74
2021/11/22 03:43:58;;;;;;;2.92;0.90;;;4.10;99.90;;;;;;5100211;28;20118;-74
2021/11/22 03:46:25;;;;;;;2.55;0.80;;;4.10;99.90;;;;;;5097907;28;20393;-74
2021/11/22 03:48:52;;;;;;;1.75;0.88;;;4.00;99.90;;;;;;5102357;28;20030;-74
2021/11/22 03:51:19;;;;;;;3.13;1.00;;;4.10;99.90;;;;;;5099699;28;20042;-74
2021/11/22 03:53:45;;;;;;;5.90;1.05;;;4.00;99.90;;;;;;5082177;28;20055;-74
2021/11/22 03:56:11;;;;;;;1.83;0.90;;;4.00;99.90;;;;;;5102233;28;20082;-74
2021/11/22 03:58:37;;;;;;;2.20;1.00;;;4.00;99.90;;;;;;5101039;28;20053;-73
2021/11/22 04:01:03;;;;;;;3.97;1.50;;;4.00;99.90;;;;;;5082625;28;20036;-73
2021/11/22 04:03:30;;;;;;;2.35;0.88;;;4.00;99.90;;;;;;5098928;28;20439;-74
2021/11/22 04:05:56;;;;;;;5.07;1.27;;;4.00;99.90;;;;;;5082683;28;20020;-74
2021/11/22 04:08:22;;;;;;;2.17;0.93;;;4.00;99.90;;;;;;5099943;28;20031;-74
2021/11/22 04:10:48;;;;;;;3.50;1.27;;;4.00;99.90;;;;;;5098379;28;20020;-74
2021/11/22 04:13:15;;;;;;;4.45;0.95;;;4.00;99.90;;;;;;5100910;28;20372;-74
2021/11/22 04:15:41;;;;;;;3.40;0.98;;;4.00;99.90;;;;;;5099534;28;20035;-73
2021/11/22 04:18:07;;;;;;;3.60;0.98;;;4.00;99.90;;;;;;5102019;28;20032;-74
2021/11/22 04:20:34;;;;;;;2.15;1.17;;;4.10;99.90;;;;;;5099406;28;20040;-74
2021/11/22 04:23:00;;;;;;;2.17;1.20;;;4.10;99.90;;;;;;5098751;28;20478;-73
2021/11/22 04:25:26;;;;;;;2.95;1.10;;;4.00;99.90;;;;;;5098611;28;20020;-74
2021/11/22 04:27:52;;;;;;;2.33;1.20;;;4.00;99.90;;;;;;5100384;28;20424;-73
2021/11/22 04:30:18;;;;;;;5.53;1.65;;;4.00;99.90;;;;;;5099537;28;20042;-73
2021/11/22 04:32:44;;;;;;;5.00;1.40;;;4.00;99.90;;;;;;5098295;28;20027;-74
2021/11/22 04:35:13;;;;;;;2.33;1.00;;;4.00;99.90;;;;;;5061380;27;20034;-74
2021/11/22 04:37:40;;;;;;;2.53;1.33;;;3.90;99.90;;;;;;5073266;28;20034;-74
2021/11/22 04:40:08;;;;;;;3.42;1.05;;;3.90;99.90;;;;;;5099192;28;20145;-74
2021/11/22 04:42:34;;;;;;;4.28;1.48;;;3.90;99.90;;;;;;5080637;28;20074;-73
2021/11/22 04:45:00;;;;;;;2.58;1.63;;;3.90;99.90;;;;;;5082292;28;20032;-74
2021/11/22 04:47:26;;;;;;;3.78;1.60;;;3.80;99.90;;;;;;5102620;28;20534;-73
2021/11/22 04:49:54;;;;;;;4.25;1.95;;;3.80;99.90;;;;;;5099064;28;20044;-74
2021/11/22 04:52:21;;;;;;;3.83;1.38;;;3.70;99.90;;;;;;5097578;28;20118;-74
2021/11/22 04:54:50;;;;;;;4.78;1.70;;;3.70;99.90;;;;;;5099473;28;20665;-74
2021/11/22 04:57:16;;;;;;;3.60;1.50;;;3.80;99.90;;;;;;5098771;28;20035;-74
2021/11/22 04:59:43;;;;;;;5.13;1.80;;;3.80;99.90;;;;;;5098512;28;20492;-74
2021/11/22 05:02:10;;;;;;;4.50;2.00;;;3.80;99.90;;;;;;5089735;28;20024;-73
2021/11/22 05:04:37;;;;;;;4.10;1.90;;;3.80;99.90;;;;;;5098166;28;20111;-74
2021/11/22 05:07:03;;;;;;;5.38;1.67;;;3.80;99.90;;;;;;5072120;28;20516;-73
2021/11/22 05:09:29;;;;;;;4.57;1.95;;;3.80;99.90;;;;;;5099487;28;20085;-74
2021/11/22 05:11:55;;;;;;;5.25;2.47;;;3.80;99.90;;;;;;5096852;28;20481;-73
2021/11/22 05:14:22;;;;;;;8.40;3.75;;;3.70;99.90;;;;;;5099757;28;20032;-74
2021/11/22 05:16:48;;;;;;;5.00;2.00;;;3.70;99.90;;;;;;5098865;28;20035;-74
2021/11/22 05:19:14;;;;;;;4.35;2.15;;;3.70;99.90;;;;;;5081648;28;20024;-74
2021/11/22 05:21:41;;;;;;;4.65;2.35;;;3.70;99.90;;;;;;5085764;28;20020;-74
2021/11/22 05:24:08;;;;;;;5.18;2.10;;;3.70;99.90;;;;;;5100958;28;20032;-74
2021/11/22 05:26:34;;;;;;;4.15;2.22;;;3.70;99.90;;;;;;5097900;28;20035;-73
2021/11/22 05:29:02;;;;;;;3.53;2.20;;;3.70;99.90;;;;;;5098714;28;20436;-74
2021/11/22 05:31:28;;;;;;;3.35;2.15;;;3.70;99.90;;;;;;5079277;28;20138;-74
2021/11/22 05:33:54;;;;;;;4.57;2.28;;;3.70;99.90;;;;;;5080687;28;20060;-73
2021/11/22 05:36:21;;;;;;;5.90;2.45;;;3.70;99.90;;;;;;5084275;28;20156;-74
2021/11/22 05:38:47;;;;;;;4.20;2.22;;;3.70;99.90;;;;;;5103757;28;20020;-74
2021/11/22 05:41:14;;;;;;;3.40;2.10;;;3.70;99.90;;;;;;5099101;28;20427;-74
2021/11/22 05:43:40;;;;;;;5.53;3.00;;;3.70;99.90;;;;;;5097580;28;20036;-74
2021/11/22 05:46:09;;;;;;;5.80;2.50;;;3.60;99.90;;;;;;5098976;28;20069;-74
2021/11/22 05:48:35;;;;;;;4.43;2.58;;;3.60;99.90;;;;;;5100938;28;20032;-74
2021/11/22 05:51:01;;;;;;;7.35;3.13;;;3.70;99.90;;;;;;5099160;28;20484;-74
2021/11/22 05:53:33;;;;;;;5.97;2.58;;;3.70;99.90;;;;;;5099906;28;20039;-74
2021/11/22 05:56:00;;;;;;;8.98;3.22;;;3.60;99.90;;;;;;5097233;28;20035;-74
2021/11/22 05:58:26;;;;;;;11.85;3.78;;;3.60;99.90;;;;;;5080143;28;20019;-74
2021/11/22 06:00:52;;;;;;;6.60;3.38;;;3.60;99.90;;;;;;5080402;28;20066;-74
2021/11/22 06:03:18;;;;;;;6.28;3.17;;;3.60;99.90;;;;;;5095494;28;20027;-74
2021/11/22 06:05:44;;;;;;;4.50;2.60;;;3.60;99.90;;;;;;5095325;28;20119;-73
2021/11/22 06:08:10;;;;;;;6.88;2.75;;;3.60;99.90;;;;;;5094451;28;20058;-74
2021/11/22 06:10:36;;;;;;;6.15;3.20;;;3.60;99.90;;;;;;5094372;28;20028;-74
2021/11/22 06:13:02;;;;;;;6.78;3.28;;;3.60;99.90;;;;;;5094929;28;20028;-74
2021/11/22 06:15:27;;;;;;;7.00;3.47;;;3.60;99.90;;;;;;5096745;28;20122;-74
2021/11/22 06:17:53;;;;;;;6.28;3.38;;;3.60;99.90;;;;;;5093320;28;20106;-74
2021/11/22 06:20:19;;;;;;;8.35;3.17;;;3.60;99.90;;;;;;5099010;28;20106;-73
2021/11/22 06:22:45;;;;;;;5.18;3.03;;;3.60;99.90;;;;;;5095784;28;20042;-75
2021/11/22 06:25:11;;;;;;;6.82;3.40;;;3.60;99.90;;;;;;5099362;28;20110;-72
2021/11/22 06:27:37;;;;;;;6.40;3.00;;;3.60;99.90;;;;;;5088076;28;20048;-73
2021/11/22 06:30:05;;;;;;;6.20;3.13;;;3.60;99.90;;;;;;5079889;28;20031;-74
2021/11/22 06:32:31;;;;;;;10.10;4.20;;;3.60;99.90;;;;;;5099814;28;20028;-75
2021/11/22 06:34:57;;;;;;;9.30;4.88;;;3.50;99.90;;;;;;5077777;28;20130;-75
2021/11/22 06:37:25;;;;;;;12.00;3.85;;;3.60;99.90;;;;;;5098812;28;20054;-76
2021/11/22 06:39:52;;;;;;;7.00;3.70;;;3.60;99.90;;;;;;5075483;28;20441;-75
2021/11/22 06:42:20;;;;;;;7.20;3.30;;;3.60;99.90;;;;;;5099790;28;20020;-75
2021/11/22 06:44:49;;;;;;;9.02;3.58;;;3.60;99.90;;;;;;5102120;28;20065;-74
2021/11/22 06:47:15;;;;;;;6.07;3.90;;;3.60;99.90;;;;;;5102736;28;20251;-74
2021/11/22 06:49:41;;;;;;;4.80;3.50;;;3.50;99.90;;;;;;5090588;28;20482;-75
2021/11/22 06:52:07;;;;;;;8.85;3.85;;;3.50;99.90;;;;;;5083038;28;20047;-74
2021/11/22 06:54:33;;;;;;;9.18;4.10;;;3.50;99.90;;;;;;5102871;28;20078;-75
2021/11/22 06:57:00;;;;;;;6.25;3.78;;;3.50;99.90;;;;;;5083523;28;20032;-74
2021/11/22 06:59:28;;;;;;;9.00;4.00;;;3.50;99.90;;;;;;5102025;28;20023;-73
2021/11/22 07:01:55;;;;;;;4.75;3.25;;;3.50;99.90;;;;;;5102217;28;20062;-75
2021/11/22 07:04:21;;;;;;;6.95;4.38;;;3.50;99.90;;;;;;5100472;28;20029;-73
2021/11/22 07:06:47;;;;;;;10.30;3.60;;;3.50;99.90;;;;;;5100940;28;20031;-75
2021/11/22 07:09:13;;;;;;;7.43;4.18;;;3.50;99.90;;;;;;5101882;28;20051;-74
2021/11/22 07:11:38;;;;;;;6.95;3.72;;;3.50;99.90;;;;;;5101441;28;20105;-72
2021/11/22 07:14:05;;;;;;;5.88;3.20;;;3.50;99.90;;;;;;5082938;28;20032;-74
2021/11/22 07:16:32;;;;;;;8.20;4.50;;;3.50;99.90;;;;;;5082775;28;20023;-74
2021/11/22 07:18:58;;;;;;;8.20;3.67;;;3.50;99.90;;;;;;5081826;28;20481;-73
2021/11/22 07:21:24;;;;;;;9.90;4.35;;;3.50;99.90;;;;;;5103904;28;20485;-73
2021/11/22 07:23:50;;;;;;;6.63;3.67;;;3.60;99.90;;;;;;5098736;28;20027;-74
2021/11/22 07:26:16;;;;;;;7.63;3.53;;;3.60;99.90;;;;;;5104072;28;20020;-73
2021/11/22 07:28:42;;;;;;;7.53;3.88;;;3.60;99.90;;;;;;5102251;28;20122;-74
2021/11/22 07:31:08;;;;;;;5.65;3.00;;;3.60;99.90;;;;;;5089188;28;20103;-74
2021/11/22 07:33:37;;;;;;;7.50;3.72;;;3.60;99.90;;;;;;5101441;28;20556;-75
2021/11/22 07:36:03;;;;;;;6.15;3.75;;;3.60;99.90;;;;;;5099330;28;20031;-75
2021/11/22 07:38:32;;;;;;;8.73;3.55;;;3.70;99.90;;;;;;5083453;28;20023;-75
2021/11/22 07:40:58;;;;;;;6.47;3.60;;;3.70;99.90;;;;;;5102010;28;20073;-74
2021/11/22 07:43:24;;;;;;;6.63;3.67;;;3.60;99.90;;;;;;5100652;28;20076;-74
2021/11/22 07:45:49;;;;;;;8.45;3.80;;;3.70;99.90;;;;;;5100757;28;20416;-73
2021/11/22 07:48:16;;;;;;;7.55;3.70;;;3.70;99.90;;;;;;5087497;28;20474;-73
2021/11/22 07:50:42;;;;;;;8.15;3.88;;;3.70;99.90;;;;;;5097419;28;20396;-71
2021/11/22 07:53:10;;;;;;;7.57;4.35;;;3.70;99.90;;;;;;5081736;28;20508;-73
2021/11/22 07:55:35;;;;;;;8.95;3.50;;;3.80;99.90;;;;;;5079585;28;20059;-73
2021/11/22 07:58:01;;;;;;;6.80;3.35;;;4.30;99.90;;;;;;5103248;28;20078;-73
2021/11/22 08:00:28;;;;;;;7.22;3.58;;;4.60;99.90;;;;;;5083495;28;20028;-73
2021/11/22 08:02:54;;;;;;;6.68;3.88;;;4.90;99.90;;;;;;5100287;28;20565;-74
2021/11/22 08:05:23;;;;;;;5.57;3.50;;;5.10;99.90;;;;;;5099388;28;20032;-73
2021/11/22 08:07:50;;;;;;;6.40;3.80;;;5.00;99.90;;;;;;5101148;28;20081;-72
2021/11/22 08:12:49;;;;;;;6.60;3.67;;;4.70;99.90;;;;;;5100174;28;20028;-75
2021/11/22 08:15:15;;;;;;;6.38;3.65;;;4.60;99.90;;;;;;5100401;28;20035;-74
2021/11/22 08:17:43;;;;;;;5.65;3.17;;;4.50;99.90;;;;;;5099306;28;20108;-75
2021/11/22 08:20:14;;;;;;;9.63;3.95;;;4.50;99.90;;;;;;5101717;28;20024;-73
2021/11/22 08:22:39;;;;;;;7.65;3.58;;;4.40;99.90;;;;;;5089117;28;20052;-74
2021/11/22 08:25:07;;;;;;;9.57;3.45;;;4.40;99.90;;;;;;5100524;28;20059;-74
2021/11/22 08:27:33;;;;;;;5.90;3.55;;;4.40;99.90;;;;;;5098146;28;20033;-73
2021/11/22 08:30:27;;;;;;;5.68;3.78;;;4.40;99.90;;;;;;5083060;28;20019;-75
2021/11/22 08:32:56;;;;;;;7.10;3.42;;;4.30;99.90;;;;;;5095653;28;20052;-74
2021/11/22 08:35:21;;;;;;;7.63;3.53;;;4.30;99.90;;;;;;5100740;28;20040;-74
2021/11/22 08:37:48;;;;;;;6.45;3.60;;;4.30;99.90;;;;;;5099669;28;20035;-73
2021/11/22 08:40:20;;;;;;;12.90;4.32;;;4.30;99.90;;;;;;5097981;28;20070;-73
2021/11/22 08:42:47;;;;;;;6.00;3.60;;;4.30;99.90;;;;;;5098357;28;20436;-72
2021/11/22 08:45:13;;;;;;;15.05;4.15;;;4.30;99.90;;;;;;5098390;28;20477;-74
2021/11/22 08:47:39;;;;;;;8.88;4.32;;;4.40;99.90;;;;;;5103353;28;20036;-75
2021/11/22 08:50:08;;;;;;;11.35;4.75;;;4.30;99.90;;;;;;5102883;28;20081;-75
2021/11/22 08:52:34;;;;;;;12.38;4.10;;;4.30;99.90;;;;;;5082716;28;20036;-73
2021/11/22 08:55:00;;;;;;;6.82;3.80;;;4.30;99.90;;;;;;5102363;28;20401;-74
2021/11/22 08:57:26;;;;;;;8.45;4.65;;;4.30;99.90;;;;;;5100962;28;20447;-72
2021/11/22 08:59:53;;;;;;;6.70;4.10;;;4.30;99.90;;;;;;5100293;28;20921;-74
2021/11/22 09:02:21;;;;;;;9.27;4.72;;;4.30;99.90;;;;;;5101907;28;20430;-74
2021/11/22 09:04:49;;;;;;;9.65;4.47;;;4.30;99.90;;;;;;5099981;28;20027;-74
2021/11/22 09:07:15;;;;;;;12.00;4.70;;;4.30;99.90;;;;;;5082982;28;20027;-73
2021/11/22 09:09:41;;;;;;;9.57;4.25;;;4.30;99.90;;;;;;5104372;28;20031;-73
2021/11/22 09:12:07;;;;;;;12.55;4.13;;;4.40;99.90;;;;;;5098508;28;20484;-73
2021/11/22 09:14:33;;;;;;;12.75;4.07;;;4.30;99.90;;;;;;5101649;28;20500;-73
2021/11/22 09:17:00;;;;;;;7.20;3.83;;;4.40;99.90;;;;;;5099734;28;20469;-73
2021/11/22 09:19:26;;;;;;;7.20;4.30;;;4.40;99.90;;;;;;5106846;28;20023;-71
2021/11/22 09:21:52;;;;;;;8.40;4.00;;;4.50;99.90;;;;;;5099256;28;20024;-72
2021/11/22 09:24:18;;;;;;;7.53;3.92;;;4.50;99.90;;;;;;5105305;28;20465;-72
2021/11/22 09:26:44;;;;;;;11.80;3.78;;;4.50;99.90;;;;;;5107728;28;20031;-73
2021/11/22 09:29:10;;;;;;;8.88;3.97;;;4.50;99.90;;;;;;5102266;28;20046;-73
2021/11/22 09:31:36;;;;;;;10.60;4.38;;;4.50;99.90;;;;;;5099308;28;20043;-73
2021/11/22 09:34:02;;;;;;;7.50;3.83;;;4.60;99.90;;;;;;5102670;28;20089;-73
2021/11/22 09:36:28;;;;;;;8.10;3.60;;;4.60;99.90;;;;;;5086358;28;20028;-73
2021/11/22 09:38:54;;;;;;;8.70;4.47;;;4.60;99.90;;;;;;5103158;28;20023;-73
2021/11/22 09:41:27;;;;;;;11.48;3.85;;;4.60;99.90;;;;;;5106379;28;20367;-72
2021/11/22 09:43:55;;;;;;;7.53;3.53;;;4.60;99.90;;;;;;5081025;28;20470;-72
2021/11/22 09:46:21;;;;;;;6.47;4.03;;;4.70;99.90;;;;;;5080594;28;20073;-73
2021/11/22 09:48:47;;;;;;;8.70;3.75;;;4.60;99.90;;;;;;5099573;28;20031;-73
2021/11/22 09:51:13;;;;;;;9.85;4.25;;;4.60;99.90;;;;;;5080785;28;20131;-74
2021/11/22 09:53:41;;;;;;;5.22;3.20;;;4.70;99.90;;;;;;5081349;28;20032;-74
2021/11/22 09:56:08;;;;;;;7.95;4.05;;;4.70;99.90;;;;;;5087300;28;20028;-73
2021/11/22 09:58:34;;;;;;;10.60;4.18;;;4.70;99.90;;;;;;5103320;28;20102;-73
2021/11/22 10:01:10;;;;;;;9.13;5.20;;;4.70;99.90;;;;;;5101558;28;20077;-73
2021/11/22 10:03:35;;;;;;;7.32;3.00;;;4.70;99.90;;;;;;5101765;28;20069;-73
2021/11/22 10:06:03;;;;;;;9.45;3.78;;;4.70;99.90;;;;;;5082810;28;20023;-73
2021/11/22 10:08:41;;;;;;;8.98;3.58;;;4.70;99.90;;;;;;5100623;28;20023;-73
2021/11/22 10:11:12;;;;;;;7.88;3.20;;;4.70;99.90;;;;;;5096163;28;20028;-72
2021/11/22 10:13:43;;;;;;;7.28;3.40;;;4.70;99.90;;;;;;5083082;28;20550;-73
2021/11/22 10:16:12;;;;;;;7.78;2.78;;;4.80;99.90;;;;;;5105782;28;20034;-72
2021/11/22 10:18:49;;;;;;;7.57;3.50;;;4.80;99.90;;;;;;5112804;28;20032;-73
2021/11/22 10:21:40;;;;;;;10.45;3.28;;;4.80;99.90;;;;;;5106033;28;20019;-73
2021/11/22 10:24:11;;;;;;;8.05;3.65;;;4.80;99.90;;;;;;5088896;28;20036;-73
2021/11/22 10:26:50;;;;;;;5.32;2.58;;;4.80;99.90;;;;;;5080908;28;20028;-72
2021/11/22 10:29:27;;;;;;;6.60;2.97;;;4.80;99.90;;;;;;5106719;28;20364;-74
2021/11/22 10:31:56;;;;;;;4.65;2.75;;;4.90;99.90;;;;;;5104524;28;20059;-74
2021/11/22 10:34:22;;;;;;;7.88;2.58;;;4.90;99.90;;;;;;5105110;28;20020;-73
2021/11/22 10:37:00;;;;;;;10.85;3.25;;;4.90;99.90;;;;;;5103102;28;20031;-74
2021/11/22 10:39:30;;;;;;;7.70;2.85;;;4.90;99.90;;;;;;5085852;28;20047;-72
2021/11/22 10:41:56;;;;;;;4.82;2.50;;;4.90;99.90;;;;;;5104318;28;20020;-73
2021/11/22 10:44:28;;;;;;;5.72;2.75;;;5.00;99.90;;;;;;5103452;28;20568;-73
2021/11/22 10:46:57;;;;;;;5.35;3.25;;;5.00;99.90;;;;;;5088060;28;20032;-73
2021/11/22 10:49:39;;;;;;;4.97;2.60;;;5.00;99.90;;;;;;5070354;28;20032;-73
2021/11/22 10:52:16;;;;;;;4.90;2.25;;;5.00;99.90;;;;;;5101117;28;20028;-73
2021/11/22 10:54:56;;;;;;;6.18;2.30;;;5.10;99.90;;;;;;5104896;28;20126;-73
2021/11/22 10:57:23;;;;;;;5.53;2.45;;;5.10;99.90;;;;;;5103349;28;20024;-74
2021/11/22 10:59:48;;;;;;;4.05;1.92;;;5.10;99.90;;;;;;5099553;28;20466;-73
2021/11/22 11:02:14;;;;;;;8.55;2.60;;;5.10;99.90;;;;;;5098396;28;20027;-73
2021/11/22 11:04:44;;;;;;;6.70;2.42;;;5.20;99.90;;;;;;5103362;28;20031;-73
2021/11/22 11:07:11;;;;;;;7.72;2.30;;;5.10;99.90;;;;;;5103661;28;20509;-74
2021/11/22 11:09:38;;;;;;;6.18;2.60;;;5.20;99.90;;;;;;5106938;28;20187;-74
2021/11/22 11:12:15;;;;;;;5.22;2.22;;;5.20;99.90;;;;;;5085115;28;20114;-72
2021/11/22 11:14:47;;;;;;;6.35;2.95;;;5.20;99.90;;;;;;5100763;28;20059;-72
2021/11/22 11:17:20;;;;;;;5.72;2.78;;;5.30;99.90;;;;;;5102395;28;20027;-72
2021/11/22 11:19:51;;;;;;;4.50;1.92;;;5.30;99.90;;;;;;5101114;28;20032;-72
2021/11/22 11:22:18;;;;;;;3.30;1.38;;;5.30;99.90;;;;;;5101656;28;20501;-72
2021/11/22 11:24:44;;;;;;;5.70;1.92;;;5.30;99.90;;;;;;5099226;28;20438;-72
2021/11/22 11:27:10;;;;;;;2.72;1.50;;;5.30;99.90;;;;;;5100791;28;20030;-76
2021/11/22 11:29:36;;;;;;;3.42;1.25;;;5.30;99.90;;;;;;5109886;28;20398;-74
2021/11/22 11:32:03;;;;;;;5.15;1.55;;;5.30;99.90;;;;;;5093515;28;20070;-76
2021/11/22 11:34:34;;;;;;;4.75;1.45;;;5.40;99.90;;;;;;5108301;28;20031;-73
2021/11/22 11:37:21;;;;;;;4.93;2.03;;;5.40;99.90;;;;;;5106273;28;20267;-76
2021/11/22 11:39:59;;;;;;;3.50;1.25;;;5.40;99.90;;;;;;5111103;28;20051;-76
2021/11/22 11:42:37;;;;;;;5.88;1.48;;;5.50;99.90;;;;;;5105120;28;20020;-77
2021/11/22 11:45:18;;;;;;;5.75;1.15;;;5.50;99.90;;;;;;5107818;28;20027;-76
2021/11/22 11:48:16;;;;;;;3.00;1.00;;;5.50;99.90;;;;;;5105783;28;20024;-76
2021/11/22 11:50:45;;;;;;;2.65;1.30;;;5.50;99.90;;;;;;5103387;28;20081;-75
2021/11/22 11:53:15;;;;;;;5.88;2.33;;;5.60;99.90;;;;;;5102531;28;20027;-74
2021/11/22 11:55:44;;;;;;;3.35;1.63;;;5.60;99.90;;;;;;5103691;28;20497;-76
2021/11/22 11:58:19;;;;;;;4.55;1.30;;;5.60;99.90;;;;;;5102765;28;20024;-74
2021/11/22 12:01:00;;;;;;;5.38;1.20;;;5.70;99.90;;;;;;5097670;28;20492;-76
2021/11/22 12:03:29;;;;;;;4.00;1.30;;;5.70;99.90;;;;;;5106470;28;20063;-76
2021/11/22 12:05:58;;;;;;;6.28;1.10;;;5.80;99.90;;;;;;5106083;28;20028;-74
2021/11/22 12:08:31;;;;;;;3.08;1.00;;;5.80;99.90;;;;;;5086089;28;20040;-74
2021/11/22 12:11:02;;;;;;;2.63;1.30;;;5.90;99.90;;;;;;5100220;28;20023;-75
2021/11/22 12:13:53;;;;;;;2.25;0.70;;;5.90;99.90;;;;;;5099701;28;20659;-76
2021/11/22 12:16:42;;;;;;;2.73;0.83;;;6.00;99.90;;;;;;5102137;28;20513;-74
2021/11/22 12:19:39;;;;;;;4.57;1.08;;;6.10;99.90;;;;;;5100616;28;20024;-76
2021/11/22 12:22:14;;;;;;;2.10;0.88;;;6.30;99.90;;;;;;5099095;28;20020;-76
2021/11/22 12:24:42;;;;;;;4.43;1.05;;;6.40;99.90;;;;;;5081721;28;20027;-74
2021/11/22 12:27:27;;;;;;;2.42;0.60;;;6.50;99.90;;;;;;5091523;28;20469;-76
2021/11/22 12:30:13;;;;;;;2.75;0.90;;;6.60;99.90;;;;;;5100039;27;20566;-75
2021/11/22 12:32:39;;;;;;;1.25;0.80;;;6.50;99.60;;;;;;5099768;27;20036;-75
2021/11/22 12:35:06;;;;;;;2.30;0.95;;;6.50;99.90;;;;;;5102302;28;20403;-76
2021/11/22 12:37:34;;;;;;;8.25;1.30;;;6.60;99.90;;;;;;5098239;28;20035;-76
2021/11/22 12:40:09;;;;;;;2.35;1.23;;;6.50;99.90;;;;;;5083156;28;20012;-74
2021/11/22 12:42:52;;;;;;;3.35;1.17;;;6.50;99.90;;;;;;5082041;28;20034;-74
2021/11/22 12:45:19;;;;;;;3.33;1.17;;;6.40;99.90;;;;;;5086206;28;20039;-73
2021/11/22 12:47:45;;;;;;;2.10;1.00;;;6.50;99.90;;;;;;5104682;28;20028;-77
2021/11/22 12:50:18;;;;;;;4.40;1.30;;;6.50;99.90;;;;;;5096977;28;20035;-75
2021/11/22 12:53:06;;;;;;;2.53;1.40;;;6.50;99.90;;;;;;5103310;28;20020;-76
2021/11/22 12:55:39;;;;;;;3.50;1.33;;;6.50;99.90;;;;;;5102308;28;20091;-76
2021/11/22 12:58:11;;;;;;;4.32;1.30;;;6.50;99.90;;;;;;5105609;28;20066;-77
2021/11/22 13:00:39;;;;;;;3.40;1.35;;;6.50;99.90;;;;;;5083520;28;20089;-77
2021/11/22 13:03:12;;;;;;;3.20;1.30;;;6.60;99.90;;;;;;5102111;28;20020;-77